Time;durP1;ratioP1;P1;durP2;ratioP2;P2;SDS_P1;SDS_P2;PMS_P1;PMS_P2;Temp;Humidity;BMP_temperature;BMP_pressure;BME280_temperature;BME280_humidity;BME280_pressure;Samples;Min_cycle;Max_cycle;Signal;HPM_P1;HPM_P2
2021/12/10 00:01:42;;;;;;;6.00;3.10;;;5.40;99.90;;;;;;5014046;28;20211;-76
2021/12/10 00:04:12;;;;;;;5.82;2.47;;;5.20;99.90;;;;;;5013833;28;20223;-76
2021/12/10 00:06:44;;;;;;;8.30;2.78;;;5.30;99.90;;;;;;5013947;28;20192;-76
2021/12/10 00:09:15;;;;;;;5.53;2.22;;;5.10;99.90;;;;;;5015446;28;20183;-76
2021/12/10 00:11:46;;;;;;;9.00;2.75;;;5.10;99.90;;;;;;5015635;28;20210;-76
2021/12/10 00:14:14;;;;;;;4.65;2.53;;;5.20;99.90;;;;;;5014010;28;20275;-77
2021/12/10 00:16:42;;;;;;;8.18;2.90;;;5.00;99.90;;;;;;5013834;28;20272;-76
2021/12/10 00:19:21;;;;;;;6.35;2.55;;;5.10;99.90;;;;;;5013698;28;20263;-76
2021/12/10 00:21:49;;;;;;;6.75;2.80;;;4.90;99.90;;;;;;5013397;28;20187;-77
2021/12/10 00:24:17;;;;;;;5.55;2.40;;;5.00;99.90;;;;;;5013699;28;20214;-76
2021/12/10 00:26:45;;;;;;;9.02;3.30;;;4.90;99.90;;;;;;5013257;28;20223;-76
2021/12/10 00:29:12;;;;;;;5.20;2.53;;;4.70;99.90;;;;;;5013225;28;20229;-76
2021/12/10 00:31:48;;;;;;;6.03;2.38;;;4.90;99.90;;;;;;5013720;28;20203;-76
2021/12/10 00:34:21;;;;;;;7.57;2.92;;;5.00;99.90;;;;;;5013626;28;20207;-76
2021/12/10 00:36:50;;;;;;;7.43;2.53;;;4.80;99.90;;;;;;5013583;28;20286;-76
2021/12/10 00:39:22;;;;;;;8.30;3.35;;;4.70;99.90;;;;;;5013417;28;20255;-76
2021/12/10 00:41:49;;;;;;;8.77;2.83;;;4.90;99.90;;;;;;5013754;28;20206;-76
2021/12/10 00:44:17;;;;;;;8.90;3.03;;;4.80;99.90;;;;;;5013787;28;20234;-75
2021/12/10 00:46:44;;;;;;;7.35;2.60;;;4.90;99.90;;;;;;5013704;28;20266;-76
2021/12/10 00:49:11;;;;;;;5.57;2.63;;;4.90;99.90;;;;;;5013509;28;20256;-77
2021/12/10 00:51:39;;;;;;;8.30;2.50;;;4.70;99.90;;;;;;5013532;28;20207;-77
2021/12/10 00:54:08;;;;;;;9.43;3.65;;;4.80;99.90;;;;;;5013174;28;20211;-77
2021/12/10 00:56:37;;;;;;;7.10;3.72;;;4.80;99.90;;;;;;5013479;28;20298;-75
2021/12/10 00:59:05;;;;;;;11.40;3.20;;;4.50;99.90;;;;;;5013777;28;20227;-76
2021/12/10 01:01:33;;;;;;;4.63;2.53;;;4.60;99.90;;;;;;5013465;28;20634;-76
2021/12/10 01:04:05;;;;;;;6.78;2.70;;;4.70;99.90;;;;;;5013673;28;20213;-75
2021/12/10 01:06:32;;;;;;;6.32;2.17;;;4.70;99.90;;;;;;5013592;28;20645;-77
2021/12/10 01:09:04;;;;;;;7.00;2.75;;;4.50;99.90;;;;;;5013326;28;20208;-76
2021/12/10 01:11:35;;;;;;;9.40;2.85;;;4.40;99.90;;;;;;5013438;28;20208;-78
2021/12/10 01:14:15;;;;;;;7.50;2.78;;;4.30;99.90;;;;;;5013326;28;20207;-78
2021/12/10 01:25:09;;;;;;;6.90;2.42;;;4.00;99.90;;;;;;5017102;28;20223;-77
2021/12/10 01:27:41;;;;;;;7.53;2.72;;;4.10;99.90;;;;;;5016403;28;20282;-76
2021/12/10 01:30:15;;;;;;;5.93;2.75;;;4.30;99.90;;;;;;5016652;28;20571;-76
2021/12/10 01:32:46;;;;;;;4.57;2.58;;;4.10;99.90;;;;;;5016683;28;20565;-77
2021/12/10 01:35:17;;;;;;;5.95;2.42;;;4.10;99.90;;;;;;5016557;28;20195;-77
2021/12/10 01:37:44;;;;;;;9.07;2.15;;;4.20;99.90;;;;;;5016087;28;20710;-76
2021/12/10 01:40:12;;;;;;;5.65;2.53;;;4.40;99.90;;;;;;5016612;28;20217;-76
2021/12/10 01:42:44;;;;;;;7.18;2.78;;;4.10;99.90;;;;;;5016155;28;20214;-76
2021/12/10 01:45:20;;;;;;;4.70;2.70;;;4.20;99.90;;;;;;5016184;28;20192;-76
2021/12/10 01:47:50;;;;;;;9.57;2.70;;;4.40;99.90;;;;;;5016388;28;20755;-76
2021/12/10 01:50:17;;;;;;;5.88;2.80;;;4.20;99.90;;;;;;5016538;28;20199;-77
2021/12/10 01:52:48;;;;;;;9.70;3.05;;;3.80;99.90;;;;;;5016438;28;20584;-76
2021/12/10 01:55:19;;;;;;;9.02;2.40;;;4.00;99.90;;;;;;5016427;28;20199;-76
2021/12/10 01:57:46;;;;;;;5.97;2.72;;;4.00;99.90;;;;;;5015823;28;20232;-76
2021/12/10 02:00:16;;;;;;;6.82;2.65;;;4.00;99.90;;;;;;5016581;28;20685;-76
2021/12/10 02:02:46;;;;;;;6.68;2.88;;;3.80;99.90;;;;;;5016161;28;20207;-76
2021/12/10 02:05:13;;;;;;;6.10;2.55;;;3.80;99.90;;;;;;5016074;28;20216;-76
2021/12/10 02:07:40;;;;;;;8.52;2.85;;;4.10;99.90;;;;;;5015810;28;20238;-75
2021/12/10 02:10:10;;;;;;;6.15;2.60;;;4.10;99.90;;;;;;5015610;28;20287;-77
2021/12/10 02:12:37;;;;;;;6.43;2.30;;;3.80;99.90;;;;;;5016215;28;20310;-75
2021/12/10 02:15:05;;;;;;;10.93;2.70;;;4.00;99.90;;;;;;5016331;28;20217;-76
2021/12/10 02:17:35;;;;;;;8.18;2.90;;;3.80;99.90;;;;;;5016085;28;20223;-77
2021/12/10 02:20:06;;;;;;;6.22;2.80;;;3.80;99.90;;;;;;5016418;28;20219;-76
2021/12/10 02:22:34;;;;;;;7.35;2.25;;;3.90;99.90;;;;;;5016438;28;20196;-76
2021/12/10 02:25:01;;;;;;;5.15;2.70;;;4.10;99.90;;;;;;5015723;28;20672;-76
2021/12/10 02:27:28;;;;;;;7.00;2.20;;;4.20;99.90;;;;;;5015283;28;20243;-76
2021/12/10 02:29:55;;;;;;;7.15;2.45;;;3.90;99.90;;;;;;5015979;28;20208;-77
2021/12/10 02:32:23;;;;;;;7.50;2.33;;;4.10;99.90;;;;;;5015749;28;20225;-77
2021/12/10 02:34:52;;;;;;;6.00;2.10;;;3.90;99.90;;;;;;5015760;28;20600;-76
2021/12/10 02:37:20;;;;;;;7.97;2.40;;;3.80;99.90;;;;;;5015182;28;20234;-77
2021/12/10 02:39:48;;;;;;;5.18;2.85;;;4.00;99.90;;;;;;5015482;28;20602;-77
2021/12/10 02:42:15;;;;;;;4.90;2.15;;;3.80;99.90;;;;;;5015816;28;20243;-76
2021/12/10 02:44:42;;;;;;;8.20;2.78;;;3.80;99.90;;;;;;5016821;28;20212;-76
2021/12/10 02:47:09;;;;;;;6.43;2.40;;;3.80;99.90;;;;;;5016088;28;20230;-77
2021/12/10 02:49:36;;;;;;;5.25;2.20;;;4.00;99.90;;;;;;5015625;28;20206;-76
2021/12/10 02:52:05;;;;;;;7.85;2.05;;;3.80;99.90;;;;;;5015108;28;20298;-76
2021/12/10 02:54:35;;;;;;;3.72;1.88;;;3.80;99.90;;;;;;5015426;28;20203;-76
2021/12/10 02:57:07;;;;;;;8.02;2.45;;;3.80;99.90;;;;;;5015028;28;20239;-76
2021/12/10 02:59:34;;;;;;;3.50;1.58;;;4.00;99.90;;;;;;5015294;28;20207;-76
2021/12/10 03:02:01;;;;;;;5.70;1.77;;;3.90;99.90;;;;;;5015286;28;20242;-76
2021/12/10 03:04:31;;;;;;;5.65;2.00;;;4.10;99.90;;;;;;5015135;28;20207;-76
2021/12/10 03:07:00;;;;;;;5.70;2.35;;;3.80;99.90;;;;;;5015198;28;20263;-76
2021/12/10 03:09:28;;;;;;;10.18;1.98;;;3.60;99.90;;;;;;5014973;28;20290;-76
2021/12/10 03:11:56;;;;;;;7.05;2.63;;;3.60;99.90;;;;;;5015231;28;20223;-76
2021/12/10 03:14:29;;;;;;;7.40;2.30;;;3.70;99.90;;;;;;5014817;28;20215;-76
2021/12/10 03:16:59;;;;;;;5.32;2.00;;;3.70;99.90;;;;;;5015003;28;20730;-77
2021/12/10 03:19:26;;;;;;;9.15;2.30;;;3.80;99.90;;;;;;5015470;28;20235;-77
2021/12/10 03:21:53;;;;;;;6.80;2.10;;;3.80;99.90;;;;;;5014939;28;20211;-76
2021/12/10 03:24:23;;;;;;;3.20;1.60;;;4.00;99.90;;;;;;5014856;28;20316;-75
2021/12/10 03:26:52;;;;;;;5.40;2.80;;;3.90;99.90;;;;;;5015460;28;20207;-76
2021/12/10 03:29:19;;;;;;;8.00;2.50;;;4.10;99.90;;;;;;5015488;28;20191;-75
2021/12/10 03:31:49;;;;;;;11.35;2.33;;;4.00;99.90;;;;;;5014731;28;20580;-76
2021/12/10 03:34:15;;;;;;;10.07;2.65;;;4.00;99.90;;;;;;5014567;28;20211;-75
2021/12/10 03:36:45;;;;;;;7.05;2.35;;;3.80;99.90;;;;;;5014850;28;20298;-75
2021/12/10 03:39:14;;;;;;;6.32;2.47;;;3.90;99.90;;;;;;5014304;28;20245;-75
2021/12/10 03:41:42;;;;;;;7.97;2.60;;;3.70;99.90;;;;;;5014943;28;20230;-75
2021/12/10 03:44:10;;;;;;;6.90;2.58;;;3.60;99.90;;;;;;5014283;28;20199;-75
2021/12/10 03:46:37;;;;;;;7.68;2.60;;;4.10;99.90;;;;;;5014274;28;20207;-75
2021/12/10 03:49:07;;;;;;;5.93;1.60;;;4.00;99.90;;;;;;5014334;28;20203;-76
2021/12/10 03:51:35;;;;;;;5.70;2.70;;;3.90;99.90;;;;;;5013998;28;20676;-76
2021/12/10 03:54:03;;;;;;;5.47;2.60;;;3.50;99.90;;;;;;5013987;28;20208;-76
2021/12/10 03:56:31;;;;;;;7.18;2.80;;;3.40;99.90;;;;;;5014102;28;20587;-76
2021/12/10 03:59:01;;;;;;;9.23;2.85;;;3.30;99.90;;;;;;5013621;28;20226;-76
2021/12/10 04:01:32;;;;;;;5.47;2.45;;;3.40;99.90;;;;;;5014328;28;20203;-76
2021/12/10 04:04:01;;;;;;;5.75;2.17;;;3.30;99.90;;;;;;5014226;28;20188;-76
2021/12/10 04:06:29;;;;;;;8.00;2.70;;;3.30;99.90;;;;;;5014172;28;20207;-76
2021/12/10 04:08:57;;;;;;;10.68;2.25;;;3.20;99.90;;;;;;5013877;28;20213;-76
2021/12/10 04:11:24;;;;;;;9.80;2.75;;;3.20;99.90;;;;;;5014376;28;20203;-77
2021/12/10 04:13:53;;;;;;;9.63;2.55;;;3.20;99.90;;;;;;5014801;28;20215;-76
2021/12/10 04:16:22;;;;;;;4.90;2.38;;;3.30;99.90;;;;;;5014682;28;20213;-76
2021/12/10 04:18:51;;;;;;;5.70;2.40;;;3.30;99.90;;;;;;5014284;28;20232;-76
2021/12/10 04:21:19;;;;;;;4.60;2.47;;;3.10;99.90;;;;;;5013873;28;20287;-77
2021/12/10 04:23:48;;;;;;;7.63;2.33;;;3.10;99.90;;;;;;5015079;28;20318;-76
2021/12/10 04:26:19;;;;;;;9.73;2.67;;;3.40;99.90;;;;;;5015207;28;20702;-76
2021/12/10 04:28:47;;;;;;;10.05;2.60;;;3.20;99.90;;;;;;5015412;28;20318;-76
2021/12/10 04:31:15;;;;;;;5.65;2.25;;;3.30;99.90;;;;;;5015186;28;20213;-76
2021/12/10 04:33:42;;;;;;;5.15;3.10;;;3.40;99.90;;;;;;5016357;28;20207;-75
2021/12/10 04:36:09;;;;;;;7.15;2.65;;;3.40;99.90;;;;;;5016100;28;20230;-78
2021/12/10 04:38:36;;;;;;;6.75;2.60;;;3.50;99.90;;;;;;5016137;28;20258;-77
2021/12/10 04:41:07;;;;;;;6.72;2.45;;;3.30;99.90;;;;;;5014797;28;20680;-77
2021/12/10 04:43:37;;;;;;;8.35;2.85;;;3.20;99.90;;;;;;5015369;28;20627;-76
2021/12/10 04:46:04;;;;;;;5.07;2.60;;;3.40;99.90;;;;;;5015772;28;20207;-75
2021/12/10 04:48:44;;;;;;;7.43;2.72;;;3.30;99.90;;;;;;5016591;28;20237;-75
2021/12/10 04:51:11;;;;;;;6.63;3.25;;;3.30;99.90;;;;;;5017089;28;20196;-77
2021/12/10 04:53:38;;;;;;;7.93;2.70;;;3.40;99.90;;;;;;5018741;28;20234;-75
2021/12/10 04:56:06;;;;;;;7.50;3.08;;;3.40;99.90;;;;;;5017809;28;20210;-78
2021/12/10 04:58:33;;;;;;;7.60;3.00;;;3.30;99.90;;;;;;5017752;28;20233;-77
2021/12/10 05:01:02;;;;;;;7.90;3.40;;;3.20;99.90;;;;;;5017472;28;20214;-76
2021/12/10 05:03:29;;;;;;;6.85;3.30;;;3.40;99.90;;;;;;5017848;28;20238;-76
2021/12/10 05:06:01;;;;;;;7.90;3.22;;;3.20;99.90;;;;;;5017357;28;20215;-76
2021/12/10 05:08:28;;;;;;;10.60;3.28;;;3.30;99.90;;;;;;5017478;28;20234;-76
2021/12/10 05:10:55;;;;;;;12.05;3.63;;;3.50;99.90;;;;;;5018386;28;20585;-76
2021/12/10 05:13:23;;;;;;;9.70;4.40;;;3.50;99.90;;;;;;5017955;28;20675;-76
2021/12/10 05:15:56;;;;;;;5.65;3.25;;;3.50;99.90;;;;;;5018062;28;20214;-76
2021/12/10 05:18:23;;;;;;;7.35;3.60;;;3.60;99.90;;;;;;5018551;28;20386;-76
2021/12/10 05:20:51;;;;;;;5.88;3.20;;;3.70;99.90;;;;;;5018460;28;20232;-76
2021/12/10 05:23:17;;;;;;;5.97;3.03;;;3.30;99.90;;;;;;5017529;28;20216;-76
2021/12/10 05:25:44;;;;;;;7.95;4.30;;;3.30;99.90;;;;;;5017251;28;20230;-76
2021/12/10 05:28:13;;;;;;;6.45;3.40;;;3.30;99.90;;;;;;5037950;22;20237;-76
2021/12/10 05:30:41;;;;;;;6.53;2.85;;;3.30;99.90;;;;;;5036490;28;20199;-75
2021/12/10 05:33:14;;;;;;;6.40;3.45;;;3.30;99.90;;;;;;5037061;28;20736;-76
2021/12/10 05:35:42;;;;;;;9.70;4.20;;;3.30;99.90;;;;;;5036767;28;20219;-75
2021/12/10 05:38:09;;;;;;;11.35;4.70;;;3.20;99.90;;;;;;5038097;28;20227;-76
2021/12/10 05:40:36;;;;;;;8.18;3.40;;;3.40;99.90;;;;;;5036426;28;20666;-75
2021/12/10 05:43:03;;;;;;;9.13;3.88;;;3.10;99.90;;;;;;5035853;28;20212;-75
2021/12/10 05:45:31;;;;;;;6.75;3.65;;;3.00;99.90;;;;;;5035392;28;20211;-75
2021/12/10 05:47:59;;;;;;;6.57;3.40;;;3.10;99.90;;;;;;5035401;28;20231;-77
2021/12/10 05:50:28;;;;;;;8.23;4.80;;;3.20;99.90;;;;;;5035996;28;20211;-74
2021/12/10 05:52:54;;;;;;;9.23;3.60;;;3.20;99.90;;;;;;5036889;28;20217;-75
2021/12/10 05:55:22;;;;;;;8.20;3.70;;;3.10;99.90;;;;;;5036263;28;20207;-76
2021/12/10 05:57:49;;;;;;;7.35;4.55;;;3.20;99.90;;;;;;5035707;28;20231;-76
2021/12/10 06:00:22;;;;;;;5.60;3.75;;;3.00;99.90;;;;;;5035923;28;20233;-76
2021/12/10 06:02:50;;;;;;;7.22;4.15;;;3.00;99.90;;;;;;5051993;28;20240;-75
2021/12/10 06:05:18;;;;;;;7.25;4.15;;;2.80;99.90;;;;;;5044138;28;20206;-75
2021/12/10 06:07:45;;;;;;;11.00;4.60;;;2.90;99.90;;;;;;5036228;28;20222;-76
2021/12/10 06:10:14;;;;;;;10.32;4.53;;;2.90;99.90;;;;;;5036185;28;20298;-75
2021/12/10 06:12:42;;;;;;;8.63;4.00;;;2.70;99.90;;;;;;5035557;28;20210;-75
2021/12/10 06:15:10;;;;;;;8.40;3.80;;;2.70;99.90;;;;;;5035171;28;20217;-75
2021/12/10 06:17:37;;;;;;;7.85;3.53;;;2.90;99.90;;;;;;5034994;28;20222;-75
2021/12/10 06:20:07;;;;;;;9.80;4.65;;;2.80;99.90;;;;;;5035442;28;20227;-76
2021/12/10 06:22:35;;;;;;;9.05;4.03;;;2.60;99.90;;;;;;5035299;28;20682;-76
2021/12/10 06:25:02;;;;;;;8.15;4.82;;;2.80;99.90;;;;;;5034887;28;20217;-76
2021/12/10 06:27:29;;;;;;;10.23;5.35;;;2.60;99.90;;;;;;5035443;28;20608;-76
2021/12/10 06:29:57;;;;;;;9.07;4.72;;;2.70;99.90;;;;;;5035980;28;20194;-78
2021/12/10 06:32:26;;;;;;;8.85;4.90;;;2.70;99.90;;;;;;5035320;28;20293;-76
2021/12/10 06:34:53;;;;;;;9.18;5.32;;;2.90;99.90;;;;;;5034827;28;20225;-76
2021/12/10 06:37:20;;;;;;;12.60;5.00;;;2.90;99.90;;;;;;5034638;28;20636;-76
2021/12/10 06:39:49;;;;;;;9.02;4.55;;;3.00;99.90;;;;;;5034645;28;20598;-76
2021/12/10 06:42:16;;;;;;;7.97;5.03;;;2.90;99.90;;;;;;5034557;28;20233;-76
2021/12/10 06:44:43;;;;;;;9.27;5.00;;;3.10;99.90;;;;;;5034465;28;20210;-75
2021/12/10 06:47:10;;;;;;;11.13;4.88;;;3.00;99.90;;;;;;5035270;28;20730;-76
2021/12/10 06:49:37;;;;;;;8.00;4.97;;;3.00;99.90;;;;;;5034625;28;20581;-76
2021/12/10 06:52:05;;;;;;;11.52;5.22;;;2.90;99.90;;;;;;5034132;28;20246;-75
2021/12/10 06:54:31;;;;;;;11.05;4.97;;;2.80;99.90;;;;;;5035480;28;20210;-76
2021/12/10 06:57:00;;;;;;;7.97;5.13;;;3.00;99.90;;;;;;5034513;28;20203;-76
2021/12/10 06:59:27;;;;;;;7.55;5.10;;;3.10;99.90;;;;;;5034211;28;20235;-76
2021/12/10 07:01:54;;;;;;;12.50;5.20;;;3.10;99.90;;;;;;5034079;28;20211;-76
2021/12/10 07:04:21;;;;;;;8.48;5.07;;;3.20;99.90;;;;;;5034001;28;20209;-76
2021/12/10 07:06:49;;;;;;;13.27;5.47;;;3.20;99.90;;;;;;5034459;28;20217;-76
2021/12/10 07:09:20;;;;;;;9.88;4.80;;;2.90;99.90;;;;;;5033789;28;20284;-76
2021/12/10 07:11:48;;;;;;;9.27;5.60;;;2.80;99.90;;;;;;5034523;28;20213;-75
2021/12/10 07:14:17;;;;;;;9.80;5.75;;;3.10;99.90;;;;;;5033547;28;20207;-77
2021/12/10 07:16:45;;;;;;;7.78;5.60;;;3.00;99.90;;;;;;5035286;28;20206;-76
2021/12/10 07:19:13;;;;;;;14.98;7.10;;;3.00;99.90;;;;;;5034694;28;20237;-75
2021/12/10 07:21:40;;;;;;;11.88;5.85;;;2.90;99.90;;;;;;5034633;28;20301;-76
2021/12/10 07:24:15;;;;;;;10.77;6.10;;;2.80;99.90;;;;;;5033935;28;20582;-76
2021/12/10 07:26:43;;;;;;;13.15;6.35;;;3.10;99.90;;;;;;5033634;28;20187;-75
2021/12/10 07:29:11;;;;;;;11.18;6.60;;;2.90;99.90;;;;;;5033516;28;20242;-76
2021/12/10 07:31:41;;;;;;;10.07;6.20;;;3.20;99.90;;;;;;5033890;28;20315;-76
2021/12/10 07:34:08;;;;;;;10.38;5.82;;;3.10;99.90;;;;;;5034043;28;20191;-76
2021/12/10 07:36:37;;;;;;;9.40;5.53;;;3.20;99.90;;;;;;5034365;28;20211;-77
2021/12/10 07:39:05;;;;;;;12.55;6.35;;;3.20;99.90;;;;;;5034107;28;20338;-76
2021/12/10 07:41:32;;;;;;;9.15;6.07;;;3.40;99.90;;;;;;5034138;28;20239;-78
2021/12/10 07:43:59;;;;;;;8.63;6.10;;;3.50;99.90;;;;;;5033401;28;20298;-77
2021/12/10 07:46:28;;;;;;;12.57;5.65;;;3.60;99.90;;;;;;5033722;28;20304;-76
2021/12/10 07:48:57;;;;;;;10.10;5.60;;;3.40;99.90;;;;;;5033531;28;20317;-76
2021/12/10 07:51:26;;;;;;;9.60;5.68;;;3.30;99.90;;;;;;5035068;28;20210;-80
2021/12/10 07:53:57;;;;;;;21.38;6.03;;;3.40;99.90;;;;;;5033870;28;20594;-76
2021/12/10 07:56:26;;;;;;;11.18;5.88;;;3.00;99.90;;;;;;5033596;28;20237;-75
2021/12/10 07:58:53;;;;;;;8.95;6.05;;;3.20;99.90;;;;;;5033073;28;20277;-76
2021/12/10 08:01:24;;;;;;;12.60;6.15;;;3.00;99.90;;;;;;5032867;28;20231;-76
2021/12/10 08:03:52;;;;;;;10.98;6.85;;;3.20;99.90;;;;;;5033209;28;20191;-76
2021/12/10 08:06:21;;;;;;;13.25;6.22;;;3.20;99.90;;;;;;5033401;28;20207;-77
2021/12/10 08:08:49;;;;;;;13.18;6.82;;;3.30;99.90;;;;;;5033103;28;20233;-76
2021/12/10 08:11:17;;;;;;;10.95;6.25;;;3.50;99.90;;;;;;5033943;28;20226;-77
2021/12/10 08:13:44;;;;;;;8.77;5.72;;;3.60;99.90;;;;;;5034132;28;20213;-77
2021/12/10 08:16:11;;;;;;;9.50;6.25;;;3.50;99.90;;;;;;5033351;28;20250;-77
2021/12/10 08:18:38;;;;;;;19.38;8.50;;;3.60;99.90;;;;;;5032938;28;20754;-76
2021/12/10 08:21:06;;;;;;;12.75;6.82;;;3.50;99.90;;;;;;5033069;28;20321;-76
2021/12/10 08:23:36;;;;;;;19.20;6.07;;;3.70;99.90;;;;;;5033318;28;20217;-77
2021/12/10 08:26:04;;;;;;;8.07;5.35;;;3.50;99.90;;;;;;5033198;28;20207;-77
2021/12/10 08:28:32;;;;;;;10.40;6.50;;;3.50;99.90;;;;;;5033544;28;20241;-76
2021/12/10 08:31:01;;;;;;;9.75;6.10;;;3.90;99.90;;;;;;5033574;28;20210;-76
2021/12/10 08:33:28;;;;;;;11.68;6.35;;;3.70;99.90;;;;;;5034445;28;20284;-76
2021/12/10 08:35:59;;;;;;;9.38;6.15;;;3.80;99.90;;;;;;5033222;28;20218;-76
2021/12/10 08:38:26;;;;;;;11.90;6.13;;;3.70;99.90;;;;;;5033438;28;20230;-75
2021/12/10 08:40:58;;;;;;;11.32;6.97;;;3.80;99.90;;;;;;5032687;28;20233;-76
2021/12/10 08:43:25;;;;;;;12.50;6.55;;;3.80;99.90;;;;;;5032226;28;20198;-75
2021/12/10 08:45:52;;;;;;;14.35;6.60;;;3.80;99.90;;;;;;5032911;28;20221;-76
2021/12/10 08:48:20;;;;;;;9.45;5.97;;;3.70;99.90;;;;;;5032889;28;20226;-76
2021/12/10 08:50:46;;;;;;;9.88;5.72;;;4.00;99.90;;;;;;5033176;28;20209;-76
2021/12/10 08:53:15;;;;;;;9.57;5.95;;;4.00;99.90;;;;;;5033053;28;20305;-76
2021/12/10 08:55:44;;;;;;;12.77;6.50;;;4.00;99.90;;;;;;5032947;28;20264;-76
2021/12/10 08:58:13;;;;;;;12.10;6.03;;;3.80;99.90;;;;;;5032987;28;20229;-78
2021/12/10 09:00:42;;;;;;;13.07;7.00;;;3.80;99.90;;;;;;5033710;28;20226;-77
2021/12/10 09:03:10;;;;;;;12.98;6.65;;;3.80;99.90;;;;;;5035397;28;20187;-76
2021/12/10 09:05:37;;;;;;;12.60;7.05;;;4.20;99.90;;;;;;5035482;28;20207;-77
2021/12/10 09:08:06;;;;;;;11.68;6.00;;;3.90;99.90;;;;;;5032657;28;20230;-77
2021/12/10 09:10:36;;;;;;;9.85;5.60;;;4.00;99.90;;;;;;5032756;28;20650;-77
2021/12/10 09:13:09;;;;;;;10.30;5.95;;;4.10;99.90;;;;;;5033780;28;20206;-77
2021/12/10 09:15:38;;;;;;;11.00;7.00;;;4.10;99.90;;;;;;5032351;28;20222;-78
2021/12/10 09:18:06;;;;;;;9.93;6.13;;;4.10;99.90;;;;;;5032528;28;20319;-77
2021/12/10 09:20:38;;;;;;;14.18;6.40;;;4.20;99.90;;;;;;5032210;28;20313;-77
2021/12/10 09:23:05;;;;;;;14.30;7.22;;;4.30;99.90;;;;;;5032284;28;20222;-76
2021/12/10 09:25:32;;;;;;;10.23;6.78;;;4.30;99.90;;;;;;5032669;28;20294;-77
2021/12/10 09:27:59;;;;;;;10.73;6.03;;;4.20;99.90;;;;;;5035144;28;20241;-76
2021/12/10 09:30:28;;;;;;;10.48;5.30;;;4.10;99.90;;;;;;5032322;28;20209;-77
2021/12/10 09:32:57;;;;;;;12.43;5.60;;;4.40;99.90;;;;;;5032285;28;20585;-78
2021/12/10 09:35:27;;;;;;;8.98;5.38;;;4.40;99.90;;;;;;5031766;28;20207;-78
2021/12/10 09:37:54;;;;;;;11.13;5.82;;;4.50;99.90;;;;;;5034396;28;20230;-78
2021/12/10 09:40:23;;;;;;;10.82;4.70;;;4.40;99.90;;;;;;5037166;28;20585;-76
2021/12/10 09:42:50;;;;;;;9.18;4.05;;;4.60;99.90;;;;;;5036581;28;20210;-79
2021/12/10 09:45:19;;;;;;;9.93;4.75;;;4.50;99.90;;;;;;5036341;28;20584;-78
2021/12/10 09:47:46;;;;;;;7.68;4.65;;;4.70;99.90;;;;;;5036886;28;20222;-77
2021/12/10 09:50:17;;;;;;;8.50;4.00;;;4.70;99.90;;;;;;5038764;28;20206;-76
2021/12/10 09:52:45;;;;;;;9.23;4.05;;;4.80;99.90;;;;;;5037699;28;20278;-77
2021/12/10 09:55:15;;;;;;;7.90;4.47;;;4.90;99.90;;;;;;5036788;28;20202;-75
2021/12/10 09:57:44;;;;;;;7.47;3.67;;;4.90;99.90;;;;;;5037512;28;20227;-77
2021/12/10 10:00:16;;;;;;;7.22;3.67;;;4.90;99.90;;;;;;5036504;28;20217;-76
2021/12/10 10:02:43;;;;;;;6.35;3.15;;;5.10;99.90;;;;;;5035579;28;20195;-74
2021/12/10 10:05:11;;;;;;;6.35;3.35;;;5.20;99.90;;;;;;5035892;28;20298;-76
2021/12/10 10:07:39;;;;;;;7.15;3.50;;;5.10;99.90;;;;;;5035433;28;20234;-78
2021/12/10 10:10:11;;;;;;;5.93;2.95;;;5.20;99.90;;;;;;5037114;28;20245;-77
2021/12/10 10:12:41;;;;;;;7.15;2.80;;;5.10;99.90;;;;;;5037044;28;20194;-77
2021/12/10 10:15:11;;;;;;;8.80;3.60;;;5.30;99.90;;;;;;5036353;28;20191;-76
2021/12/10 10:17:39;;;;;;;7.95;4.03;;;5.40;99.90;;;;;;5035752;28;20247;-76
2021/12/10 10:20:12;;;;;;;6.30;3.38;;;5.60;99.90;;;;;;5035525;28;20248;-76
2021/12/10 10:22:41;;;;;;;5.18;2.72;;;5.60;99.90;;;;;;5036083;28;20209;-77
2021/12/10 10:25:11;;;;;;;10.60;4.93;;;5.50;99.90;;;;;;5035225;28;20202;-76
2021/12/10 10:27:40;;;;;;;4.45;2.13;;;5.50;99.90;;;;;;5035056;28;20277;-77
2021/12/10 10:30:22;;;;;;;5.35;2.63;;;5.50;99.90;;;;;;5035793;28;20544;-77
2021/12/10 10:32:49;;;;;;;6.18;2.80;;;5.50;99.90;;;;;;5035769;28;20215;-78
2021/12/10 10:35:21;;;;;;;3.97;2.38;;;5.50;99.90;;;;;;5036593;28;20309;-79
2021/12/10 10:37:52;;;;;;;12.23;3.10;;;5.70;99.90;;;;;;5037873;28;20300;-80
2021/12/10 10:40:22;;;;;;;6.75;3.47;;;5.40;99.90;;;;;;5038644;28;20286;-79
2021/12/10 10:42:49;;;;;;;9.50;3.90;;;5.70;99.90;;;;;;5037360;28;20211;-78
2021/12/10 10:45:20;;;;;;;6.63;2.90;;;5.80;99.90;;;;;;5037299;28;20191;-79
2021/12/10 10:47:48;;;;;;;9.40;2.60;;;5.70;99.90;;;;;;5038006;28;20330;-77
2021/12/10 10:50:24;;;;;;;5.28;2.45;;;6.10;99.90;;;;;;5035096;28;20237;-78
2021/12/10 10:52:57;;;;;;;6.50;3.22;;;6.20;99.90;;;;;;5035115;28;20195;-76
2021/12/10 10:55:28;;;;;;;6.70;2.70;;;6.10;99.90;;;;;;5034625;28;20619;-76
2021/12/10 10:57:59;;;;;;;6.30;2.13;;;6.00;99.90;;;;;;5034347;28;20265;-76
2021/12/10 11:00:32;;;;;;;8.73;2.60;;;6.00;99.90;;;;;;5034113;28;20245;-76
2021/12/10 11:03:04;;;;;;;5.07;2.20;;;6.00;99.90;;;;;;5034626;28;20191;-77
2021/12/10 11:05:34;;;;;;;7.53;2.22;;;6.30;99.90;;;;;;5035095;28;20610;-77
2021/12/10 11:08:06;;;;;;;9.43;2.55;;;6.40;99.90;;;;;;5034119;28;20232;-76
2021/12/10 11:10:35;;;;;;;4.10;2.25;;;6.50;99.00;;;;;;5034107;28;20223;-76
2021/12/10 11:13:10;;;;;;;3.20;1.67;;;6.50;98.10;;;;;;5034075;28;20215;-76
2021/12/10 11:15:40;;;;;;;8.40;3.08;;;6.00;98.10;;;;;;5035157;28;20256;-78
2021/12/10 11:18:15;;;;;;;5.63;2.75;;;6.10;98.40;;;;;;5034689;28;20233;-76
2021/12/10 11:20:43;;;;;;;7.97;3.30;;;6.00;98.90;;;;;;5034277;28;20219;-76
2021/12/10 11:23:15;;;;;;;10.98;3.38;;;6.10;98.80;;;;;;5034057;28;20241;-77
2021/12/10 11:25:45;;;;;;;5.88;2.10;;;6.20;99.20;;;;;;5033555;28;20201;-77
2021/12/10 11:28:15;;;;;;;5.25;1.83;;;6.30;98.60;;;;;;5044537;22;20230;-76
2021/12/10 11:30:44;;;;;;;4.50;2.20;;;6.40;97.70;;;;;;5015424;28;20226;-77
2021/12/10 11:33:14;;;;;;;8.75;1.95;;;6.30;96.60;;;;;;5015635;28;20234;-77
2021/12/10 11:35:46;;;;;;;3.38;1.30;;;6.20;96.70;;;;;;5015178;28;20196;-77
2021/12/10 11:38:16;;;;;;;6.05;1.25;;;5.80;97.50;;;;;;5014698;28;20231;-76
2021/12/10 11:40:50;;;;;;;4.95;2.10;;;5.60;98.70;;;;;;5014124;28;20207;-77
2021/12/10 11:43:52;;;;;;;3.70;1.60;;;5.60;99.30;;;;;;5015617;28;20208;-76
2021/12/10 11:46:44;;;;;;;5.65;1.90;;;5.70;99.80;;;;;;5014946;28;20265;-77
2021/12/10 11:49:19;;;;;;;4.53;1.30;;;5.60;99.90;;;;;;5015154;28;20262;-77
2021/12/10 11:51:48;;;;;;;7.22;1.88;;;5.80;99.90;;;;;;5014587;28;20191;-79
2021/12/10 11:54:24;;;;;;;4.05;1.50;;;5.60;99.90;;;;;;5014880;28;20582;-77
2021/12/10 11:56:56;;;;;;;3.83;1.20;;;5.70;99.90;;;;;;5014423;28;20557;-77
2021/12/10 11:59:27;;;;;;;4.75;1.60;;;5.30;99.90;;;;;;5013963;28;20763;-76
2021/12/10 12:01:58;;;;;;;6.22;1.63;;;5.10;99.90;;;;;;5014221;28;20366;-77
2021/12/10 12:04:30;;;;;;;7.65;2.88;;;4.80;99.90;;;;;;5014485;28;20546;-76
2021/12/10 12:07:35;;;;;;;4.68;1.40;;;4.80;99.90;;;;;;5014329;28;20552;-77
2021/12/10 12:10:11;;;;;;;3.30;1.80;;;4.80;99.90;;;;;;4934310;29;20240;-77
2021/12/10 12:12:40;;;;;;;5.13;1.50;;;4.50;99.90;;;;;;4934489;29;20229;-76
2021/12/10 12:15:27;;;;;;;6.60;2.47;;;4.50;99.90;;;;;;4978069;28;20211;-76
2021/12/10 12:17:56;;;;;;;5.18;3.13;;;4.40;99.90;;;;;;5013501;28;20218;-77
2021/12/10 12:20:28;;;;;;;4.78;1.75;;;4.20;99.90;;;;;;5013615;28;20218;-77
2021/12/10 12:25:47;;;;;;;4.57;2.30;;;4.40;99.90;;;;;;5014271;28;20191;-77
2021/12/10 12:28:17;;;;;;;8.20;1.92;;;4.00;99.90;;;;;;5013292;28;20318;-77
2021/12/10 12:30:56;;;;;;;9.45;5.63;;;4.20;99.90;;;;;;5013726;28;20207;-77
2021/12/10 12:33:25;;;;;;;4.00;2.00;;;4.10;99.90;;;;;;5013672;28;20191;-76
2021/12/10 12:35:53;;;;;;;6.70;2.20;;;4.10;99.90;;;;;;5013647;28;20207;-77
2021/12/10 12:38:26;;;;;;;4.07;1.70;;;4.20;99.90;;;;;;5013018;28;20227;-77
2021/12/10 12:41:10;;;;;;;5.03;3.00;;;4.20;99.90;;;;;;5013105;28;20196;-77
2021/12/10 12:43:41;;;;;;;6.15;2.53;;;4.20;99.90;;;;;;5015793;28;20199;-77
2021/12/10 12:46:10;;;;;;;4.70;2.20;;;4.50;99.90;;;;;;5016158;28;20605;-75
2021/12/10 12:48:38;;;;;;;8.00;2.83;;;4.40;99.90;;;;;;5012808;28;20227;-76
2021/12/10 12:51:14;;;;;;;4.63;2.17;;;4.60;99.90;;;;;;5012779;28;20668;-76
2021/12/10 12:53:41;;;;;;;4.10;2.10;;;4.60;99.90;;;;;;5012573;28;20199;-76
2021/12/10 12:56:14;;;;;;;4.57;2.40;;;4.60;99.90;;;;;;5013382;28;20213;-76
2021/12/10 12:58:43;;;;;;;7.05;3.08;;;4.30;99.90;;;;;;5013027;28;20583;-76
2021/12/10 13:01:16;;;;;;;5.25;2.50;;;4.30;99.90;;;;;;5014104;28;20588;-77
2021/12/10 13:03:47;;;;;;;5.05;2.50;;;4.30;99.90;;;;;;5015523;28;20196;-77
2021/12/10 13:06:17;;;;;;;6.00;2.63;;;4.50;99.90;;;;;;5017593;28;20195;-77
2021/12/10 13:08:47;;;;;;;4.68;2.40;;;4.40;99.90;;;;;;5015266;28;20321;-77
2021/12/10 13:11:22;;;;;;;12.02;3.35;;;4.20;99.90;;;;;;5013540;28;20199;-77
2021/12/10 13:13:52;;;;;;;8.32;2.40;;;4.40;99.90;;;;;;5018432;28;20282;-78
2021/12/10 13:16:37;;;;;;;5.00;2.00;;;4.50;99.90;;;;;;5017924;28;20282;-76
2021/12/10 13:19:04;;;;;;;7.32;2.30;;;4.50;99.90;;;;;;5018747;28;20594;-77